Historyczne dane pomiarowe

Dodano dane terminowe – wersja testowa.

Dane z okresu 1951-2019

Wersja bazy: 1.34 [2019-03-16, lista zmian], aktualizacja planowana na 2019-04-15

Dane meteo z obszaru Polski uzyskane na podstawie danych udostępnionych przez Instytut Meteorologii i Gospodarki Wodnej – Państwowy Instytut Badawczy.

 

Wybierz Datę:    

       

TemperaturaWilgotnośćWiatrCiśnienieOpadyŚniegCzas trwania zjawisk
 Stacja t tx tn tng RH VA  wxwx mslp ppp RRR   cm mm wxwxwxwxwxwxwx
1963-02-14 -5.2 -4.3 -9.0--- 8.0 4.3---- 0.0-- 19---------
1963-02-15 -5.8 -3.5 -7.5--- 8.0 2.3---- 0.1-- 19---------
1963-02-16 -5.5 -3.9 -7.2--- 8.0 4.3---- 0.0-- 20---------
1963-02-17 -5.6 -4.9 -7.2--- 8.0 3.3---- 0.1-- 20---------
1963-02-18 -7.1 -5.1 -8.5--- 6.7 5.3---- 1.3-- 20---------
1963-02-19 -8.4 -5.7-13.0--- 8.0 3.0---- 1.3-- 20---------
1963-02-20 -6.0 -5.1 -8.3--- 8.0 4.7---- 1.3-- 22---------
1963-02-21-10.1 -4.6-12.8--- 8.0 6.0---- 0.0-- 22---------
1963-02-22 -9.4 -1.1-16.4--- 3.0 3.7---- 0.0-- 22---------
1963-02-23-14.6 -5.7-20.9--- 0.7 1.7---- 0.0-- 22---------
1963-02-24 -9.0 -7.9-16.5--- 7.7 6.7---- 0.0-- 22---------
1963-02-25 -6.4 -1.9-10.9--- 8.0 14.3---- 0.1-- 22---------
1963-02-26-18.7 -5.1-23.1--- 0.0 4.7---- 0.0-- 21---------
1963-02-27-16.8-11.4-25.4--- 2.7 2.3---- 0.0-- 21---------
1963-02-28-12.1 -8.1-18.0--- 4.0 4.0---- 0.0-- 21---------
1963-03-01 -8.2 -5.1-13.9--- 7.0 6.3---- 0.0-- 21---------
1963-03-02 -4.8 -1.3 -7.2--- 4.7 6.0---- 0.0-- 21---------
1963-03-03 -1.8 -0.1 -7.2--- 8.0 6.7---- 0.0-- 20---------
1963-03-04 -5.3 -0.3 -9.2--- 5.7 2.7---- 0.1-- 20---------
1963-03-05 -2.2 0.6-13.6--- 7.7 4.0---- 0.0-- 19---------
1963-03-06 -1.3 1.9 -6.8--- 8.0 9.3---- 2.1-- 18---------
1963-03-07 1.9 3.0 0.7--- 8.0 10.0---- 0.7-- 12---------
1963-03-08 1.3 2.3 0.4--- 7.3 9.0---- 0.0-- 7---------
1963-03-09 -5.2 1.4 -6.1--- 7.7 4.3---- 0.0-- 4---------
1963-03-10 -8.1 -3.7-12.1--- 2.0 4.3---- 0.0-- 4---------
1963-03-11 -4.1 -1.9 -9.6--- 6.7 4.3---- 0.0-- 4---------
1963-03-12 0.7 3.0 -2.3--- 7.0 3.0---- 0.0-- 4---------
1963-03-13 0.9 3.3 -1.3--- 7.7 4.3---- 0.6-- 3---------
1963-03-14 -9.3 0.7-10.5--- 4.0 13.7---- 0.0-- 3---------
1963-03-15-10.1 -5.5-16.4--- 0.0 4.3---- 0.0-- 3---------
160.0 ms

 

Źródłem pochodzenia danych jest Instytut Meteorologii i Gospodarki Wodnej – Państwowy Instytut Badawczy. Dane Instytutu Meteorologii i Gospodarki Wodnej – Państwowego Instytutu Badawczego zostały przetworzone.

Dane źródłowe można odnaleźć na stronie https://dane.imgw.pl